This is the latest recevied weather packets stored in our database for station/object DO1SC. If no packets are shown the sender has not sent any weather packets the latest 10 day(s).
| Time | Temp. | Humidity | Pressure | Rain* | Wind** | Luminosity | Snow |
|---|---|---|---|---|---|---|---|
| 1777172720 | 3.89° C | 89% | 1021.2 hPa | - | - | 0 W/m² | - |
| 1777172135 | 3.89° C | 90% | 1021 hPa | - | - | 0 W/m² | - |
| 1777171524 | 3.89° C | 90% | 1020.9 hPa | - | - | 0 W/m² | - |
| 1777170935 | 3.89° C | 89% | 1020.7 hPa | - | - | 0 W/m² | - |
| 1777170329 | 3.89° C | 88% | 1020.7 hPa | - | - | 0 W/m² | - |
| 1777169718 | 3.89° C | 87% | 1020.5 hPa | - | - | 0 W/m² | - |
| 1777169133 | 4.44° C | 85% | 1020.5 hPa | - | - | 0 W/m² | - |
| 1777168521 | 4.44° C | 83% | 1020.5 hPa | - | - | 0 W/m² | - |
| 1777167938 | 5° C | 79% | 1020.4 hPa | - | - | 0 W/m² | - |
| 1777167325 | 5.56° C | 76% | 1020.2 hPa | - | - | 0 W/m² | - |
| 1777166717 | 6.11° C | 71% | 1020.1 hPa | - | - | 0 W/m² | - |
| 1777166131 | 6.67° C | 67% | 1020 hPa | - | - | 0 W/m² | - |
| 1777165520 | 7.22° C | 65% | 1019.8 hPa | - | - | 0 W/m² | - |
| 1777164932 | 7.22° C | 63% | 1019.8 hPa | - | - | 0 W/m² | - |
| 1777164327 | 7.78° C | 60% | 1019.5 hPa | - | - | 0 W/m² | - |
| 1777163735 | 7.78° C | 58% | 1019.6 hPa | - | - | 0 W/m² | - |
| 1777163127 | 7.78° C | 56% | 1019.4 hPa | - | - | 0 W/m² | - |
| 1777162521 | 8.33° C | 55% | 1019.2 hPa | - | - | 0 W/m² | - |
| 1777161930 | 8.33° C | 54% | 1019.1 hPa | - | - | 0 W/m² | - |
| 1777161322 | 8.89° C | 53% | 1019.1 hPa | - | - | 0 W/m² | - |
| 1777160733 | 8.89° C | 52% | 1019.1 hPa | - | - | 0 W/m² | - |
| 1777160125 | 8.89° C | 51% | 1019 hPa | - | - | 0 W/m² | - |
| 1777159517 | 9.44° C | 50% | 1018.8 hPa | - | - | 0 W/m² | - |
| 1777158928 | 9.44° C | 50% | 1018.9 hPa | - | - | 0 W/m² | - |
| 1777158320 | 9.44° C | 49% | 1018.7 hPa | - | - | 0 W/m² | - |
* Rain since midnight (hover to see other rain measurements)
** Current wind speed in m/s (hover to see current wind gust speed)